• Join FlightAware (Why Join?)
  • Login
  • US Flag 
08:21PM EDT


 

Airport Tracker/Info


-or-


 

Live Flight TrackerFlight Track Log ✈ UAL907 ✈ 22-Jun-2013 ✈ KORD - EDDF / FRA

Flight Track Log - Related Links

Times and Time Zones

All times are in EDT time to prevent confusion due to time zone crossing. See the UAL907 flight status page for this flight to view local times or setup timezone preferences in your user account.

Time Position Orientation Groundspeed Altitude Reporting Facility
EDT Latitude Longitude Course Direction KTS MPH feet Rate Location/Type
07:20PM 41.9800 -87.9120 329° Northwest 20 23  Level FlightAware
07:20PM 41.9800 -87.9130 270° West 24 28 60 Level FlightAware
07:22PM 41.9770 -87.9150 206° Southwest 23 26 60 Level FlightAware
07:23PM 41.9800 -87.9170 334° Northwest 34 39 60 Level FlightAware
07:23PM 41.9810 -87.9180 323° Northwest 16 18 60 Level FlightAware
07:24PM 41.9830 -87.9180 360° North 33 38 60 Level FlightAware
07:24PM 41.9850 -87.9180 360° North 32 37 60 Level FlightAware
07:25PM 41.9860 -87.9180 360° North 27 31 60 Level FlightAware
07:25PM 41.9870 -87.9170 37° Northeast 28 32 60 Level FlightAware
07:26PM 41.9870 -87.9150 90° East 28 32 60 Level FlightAware
07:26PM 41.9880 -87.9140 37° Northeast 34 39 120 Level FlightAware
07:26PM 41.9880 -87.9130 90° East 18 21 120 Level FlightAware
07:27PM 41.9900 -87.9110 37° Northeast 18 21 120 Level FlightAware
07:27PM 41.9920 -87.9090 37° Northeast 16 18 120 Level FlightAware
07:27PM 41.9930 -87.9090 360° North 32 37 120 Level FlightAware
07:28PM 41.9940 -87.9080 37° Northeast 27 31 120 Level FlightAware
07:28PM 41.9950 -87.9090 323° Northwest 34 39 120 Level FlightAware
07:29PM 41.9980 -87.9130 315° West 34 39 120 Level FlightAware
07:30PM 41.9990 -87.9140 323° Northwest 28 32 180 Level FlightAware
07:30PM 42.0000 -87.9150 323° Northwest 23 26 180 Level FlightAware
07:33PM 42.2792 -87.8014 14° North  Level FlightAware Approximate
07:34PM 42.4084 -87.7583 14° North  Level FlightAware Approximate
07:35PM 42.5382 -87.7196 10° North  Level FlightAware Approximate
07:35PM 41.9770 -87.8830 10° North 184 212 1,200  Level FlightAware
07:35PM 41.9730 -87.8620 104° East 198 228 1,900 1,560 Climbing FlightAware
07:36PM 41.9730 -87.8230 90° East 236 272 2,400 1,200 Climbing FlightAware
07:36PM 41.9720 -87.7940 93° East 249 287 2,900 1,500 Climbing FlightAware
07:37PM 41.9730 -87.7410 89° East 276 318 3,700 1,500 Climbing FlightAware
07:37PM 41.9720 -87.6980 92° East 298 343 4,300 1,740 Climbing FlightAware
07:38PM 41.9780 -87.6620 77° East 300 345 5,000 2,460 Climbing FlightAware
07:38PM 41.9940 -87.6140 66° East 297 342 6,300 2,700 Climbing FlightAware
07:38PM 42.0040 -87.5970 52° Northeast 293 337 6,800 2,340 Climbing FlightAware
07:38PM 42.0230 -87.5850 25° Northeast 289 333 7,400 2,220 Climbing FlightAware
07:39PM 42.0350 -87.5830 North 289 333 7,700 2,100 Climbing FlightAware
07:39PM 42.0600 -87.5920 345° North 288 331 8,400 2,100 Climbing FlightAware
07:39PM 42.0910 -87.6170 329° Northwest 292 336 9,400 2,220 Climbing FlightAware
07:40PM 42.1420 -87.6610 327° Northwest 294 338 11,100 2,160 Climbing FlightAware
07:41PM 42.1730 -87.6800 336° Northwest 297 342 11,900 2,100 Climbing FlightAware
07:41PM 42.2320 -87.6830 358° North 301 346 13,500 2,100 Climbing FlightAware
07:42PM 42.2720 -87.6800 North 303 349 14,400 1,800 Climbing FlightAware
07:42PM 42.3360 -87.6730 North 309 356 15,700 1,800 Climbing FlightAware
07:43PM 42.3960 -87.6690 North 313 360 17,000 1,560 Climbing FlightAware
07:44PM 42.4520 -87.6640 North 327 376 17,800 900 Climbing FlightAware
07:45PM 42.5230 -87.6590 North 358 412 18,300 540 Climbing FlightAware
07:45PM 42.5920 -87.6530 North 387 445 18,600 480 Climbing FlightAware
07:46PM 42.6780 -87.6460 North 416 479 19,000 660 Climbing FlightAware
07:47PM 42.7550 -87.6400 North 433 498 19,600 1,020 Climbing FlightAware
07:48PM 42.8810 -87.5500 28° Northeast 456 525 20,900 1,200 Climbing FlightAware
07:49PM 42.9360 -87.4640 49° Northeast 459 528 21,900 1,560 Climbing FlightAware
07:49PM 42.9900 -87.3780 49° Northeast 459 528 23,000 1,380 Climbing FlightAware
07:50PM 43.0540 -87.2750 50° Northeast 467 537 23,900 1,080 Climbing FlightAware
07:51PM 43.1100 -87.1860 49° Northeast 475 547 24,600 960 Climbing FlightAware
07:51PM 43.1760 -87.0810 49° Northeast 484 557 25,300 900 Climbing FlightAware
07:52PM 43.2350 -86.9870 49° Northeast 491 565 25,900 900 Climbing FlightAware
07:53PM 43.2920 -86.8960 49° Northeast 497 572 26,500 900 Climbing FlightAware
07:53PM 43.3600 -86.7860 50° Northeast 507 583 27,200 840 Climbing FlightAware
07:54PM 43.4250 -86.6820 49° Northeast 514 592 27,800 960 Climbing FlightAware
07:55PM 43.4940 -86.5680 50° Northeast 516 594 28,600 960 Climbing FlightAware
07:56PM 43.5570 -86.4670 49° Northeast 519 597 29,200 960 Climbing FlightAware
07:56PM 43.6190 -86.3640 50° Northeast 520 598 29,900 1,260 Climbing FlightAware
07:57PM 43.6890 -86.2500 50° Northeast 516 594 31,000 1,140 Climbing FlightAware
07:58PM 43.7530 -86.1450 50° Northeast 517 595 31,600 960 Climbing FlightAware
07:58PM 43.8140 -86.0440 50° Northeast 516 594 32,300 900 Climbing FlightAware
07:59PM 43.8810 -85.9330 50° Northeast 517 595 32,900 720 Climbing FlightAware
08:00PM 43.9440 -85.8270 50° Northeast 520 598 33,400 720 Climbing FlightAware
08:00PM 43.9980 -85.7240 54° Northeast 518 596 33,900 780 Climbing FlightAware
08:01PM 44.0360 -85.5820 70° East 514 592 34,500 720 Climbing FlightAware
08:02PM 44.0640 -85.4410 75° East 515 593 35,000 300 Climbing FlightAware
08:03PM 44.0890 -85.3140 75° East 519 597 35,000  Level FlightAware
08:03PM 44.1160 -85.1740 75° East 518 596 35,000  Level FlightAware
08:04PM 44.1420 -85.0440 74° East 517 595 35,000  Level FlightAware
08:05PM 44.1690 -84.9020 75° East 516 594 35,000  Level FlightAware
08:05PM 44.1940 -84.7750 75° East 516 594 35,000  Level FlightAware
08:06PM 44.2200 -84.6390 75° East 515 593 35,000  Level FlightAware
08:07PM 44.2460 -84.5010 75° East 516 594 35,000  Level FlightAware
08:07PM 44.2700 -84.3710 76° East 516 594 35,000  Level FlightAware
08:08PM 44.2950 -84.2410 75° East 516 594 35,000  Level FlightAware
08:09PM 44.3200 -84.1060 75° East 516 594 35,000  Level FlightAware
08:09PM 44.3430 -83.9780 76° East 516 594 35,000  Level FlightAware
08:10PM 44.3720 -83.8240 75° East 517 595 35,000  Level FlightAware
08:11PM 44.3940 -83.7050 75° East 516 594 35,000  Level FlightAware
08:12PM 44.4160 -83.5780 76° East 516 594 35,000  Level FlightAware
08:12PM 44.4440 -83.4240 76° East 517 595 35,000  Level FlightAware
08:13PM 44.4730 -83.2960 72° East 516 594 35,000  Level FlightAware
08:14PM 44.5050 -83.1580 72° East 515 593 35,000  Level FlightAware
08:14PM 44.5370 -83.0240 71° East 516 594 35,000  Level FlightAware
08:15PM 44.5690 -82.8910 71° East 516 594 35,000  Level FlightAware
08:16PM 44.5990 -82.7610 72° East 517 595 35,000  Level FlightAware
08:17PM 44.6320 -82.6200 72° East 519 597 35,000  Level FlightAware
08:17PM 44.6530 -82.5270 72° East 519 597 35,000  Level FlightAware
08:18PM 44.6820 -82.4000 72° East 519 597 35,000  Level FlightAware
08:19PM 44.7210 -82.2300 72° East 520 598 35,000  Level FlightAware
08:19PM 44.7530 -82.0870 72° East 521 600 35,000  Level FlightAware
08:20PM 44.7820 -81.9630 72° East 520 598 35,000  Level FlightAware
08:21PM 44.8120 -81.8290 72° East 520 598 35,000  Level FlightAware
08:21PM 44.8410 -81.6970 73° East 521 600 35,000  Level FlightAware
08:22PM 44.8680 -81.5760 72° East 521 600 35,000  Level FlightAware
08:23PM 44.9060 -81.4020 73° East 522 601 35,000  Level FlightAware
08:23PM 44.9300 -81.2900 73° East 522 601 35,000  Level FlightAware
08:24PM 44.9580 -81.1640 73° East 520 598 35,000  Level FlightAware
08:25PM 44.9900 -81.0150 73° East 519 597 35,000  Level FlightAware
08:26PM 45.0170 -80.8850 74° East 519 597 35,000  Level FlightAware
08:26PM 45.0490 -80.7390 73° East 518 596 35,000  Level FlightAware
08:27PM 45.0780 -80.5970 74° East 520 598 35,000  Level FlightAware
08:28PM 45.1030 -80.4780 73° East 521 600 35,000  Level FlightAware
08:28PM 45.1340 -80.3320 73° East 522 601 35,000  Level FlightAware
08:29PM 45.1600 -80.2040 74° East 524 603 35,000  Level FlightAware
08:30PM 45.1920 -80.0520 73° East 522 601 35,000  Level FlightAware
08:30PM 45.2180 -79.9220 74° East 523 602 35,000  Level FlightAware
08:31PM 45.2450 -79.7910 74° East 522 601 35,000  Level FlightAware
08:32PM 45.2740 -79.6440 74° East 521 600 35,000  Level FlightAware
08:33PM 45.3040 -79.4950 74° East 520 598 35,000  Level FlightAware
08:33PM 45.3290 -79.3710 74° East 519 597 35,000  Level FlightAware
08:34PM 45.3590 -79.2180 74° East 518 596 35,000  Level FlightAware
08:35PM 45.3850 -79.0870 74° East 516 594 35,000  Level FlightAware
08:35PM 45.4090 -78.9590 75° East 516 594 35,000  Level FlightAware
08:36PM 45.4390 -78.8080 74° East 517 595 35,000  Level FlightAware
08:37PM 45.4580 -78.7040 75° East 517 595 35,000  Level FlightAware
08:37PM 45.4870 -78.5550 74° East 517 595 35,000  Level FlightAware
08:38PM 45.5160 -78.4020 75° East 519 597 35,000  Level FlightAware
08:39PM 45.5430 -78.2580 75° East 520 598 35,000  Level FlightAware
08:40PM 45.5690 -78.1170 75° East 520 598 35,000  Level FlightAware
08:40PM 45.5930 -77.9850 75° East 521 600 35,000  Level FlightAware
08:41PM 45.6190 -77.8470 75° East 522 601 35,000  Level FlightAware
08:42PM 45.6430 -77.7110 76° East 521 600 35,000  Level FlightAware
08:42PM 45.6690 -77.5710 75° East 523 602 35,000  Level FlightAware
08:43PM 45.6930 -77.4190 77° East 525 604 35,000  Level FlightAware
08:44PM 45.7140 -77.2860 77° East 526 605 35,000  Level FlightAware
08:45PM 45.7380 -77.1290 78° East 526 605 35,000  Level FlightAware
08:45PM 45.7570 -77.0060 77° East 526 605 35,000  Level FlightAware
08:46PM 45.7800 -76.8580 77° East 527 606 35,000  Level FlightAware
08:47PM 45.8040 -76.7070 77° East 528 608 35,000  Level FlightAware
08:47PM 45.8250 -76.5690 78° East 529 609 35,000  Level FlightAware
08:48PM 45.8480 -76.4170 78° East 529 609 35,000  Level FlightAware
08:49PM 45.8680 -76.2780 78° East 530 610 35,000  Level FlightAware
08:49PM 45.8890 -76.1410 78° East 531 611 35,000  Level FlightAware
08:50PM 45.9120 -75.9830 78° East 532 612 35,000  Level FlightAware
08:51PM 45.9330 -75.8450 78° East 531 611 35,000  Level FlightAware
08:52PM 45.9600 -75.6920 76° East 530 610 35,000  Level FlightAware
08:52PM 45.9840 -75.5580 76° East 530 610 35,000  Level FlightAware
08:53PM 46.0100 -75.4040 76° East 531 611 35,000  Level FlightAware
08:54PM 46.0320 -75.2700 77° East 531 611 35,000  Level FlightAware
08:54PM 46.0550 -75.1340 76° East 531 611 35,000  Level FlightAware
08:55PM 46.0840 -74.9590 77° East 529 609 35,000  Level FlightAware
08:56PM 46.1060 -74.8220 77° East 529 609 35,000  Level FlightAware
08:56PM 46.1280 -74.6850 77° East 527 606 35,000  Level FlightAware
08:57PM 46.1500 -74.5510 77° East 526 605 35,000  Level FlightAware
08:58PM 46.1830 -74.3420 77° East 527 606 35,000  Level FlightAware
08:59PM 46.2070 -74.1930 77° East 527 606 35,000  Level FlightAware
09:00PM 46.2290 -74.0530 77° East 526 605 35,000  Level FlightAware
09:00PM 46.2500 -73.9190 77° East 526 605 35,000  Level FlightAware
09:01PM 46.2730 -73.7650 78° East 526 605 35,000  Level FlightAware
09:02PM 46.2950 -73.6200 78° East 526 605 35,000  Level FlightAware
09:02PM 46.3160 -73.4820 78° East 526 605 35,000  Level FlightAware
09:03PM 46.3350 -73.3550 78° East 525 604 35,000  Level FlightAware
09:04PM 46.3590 -73.1950 78° East 526 605 35,000  Level FlightAware
09:04PM 46.3810 -73.0460 78° East 527 606 35,000  Level FlightAware
09:05PM 46.4020 -72.9050 78° East 527 606 35,000  Level FlightAware
09:06PM 46.4230 -72.7560 78° East 526 605 35,000  Level FlightAware
09:06PM 46.4430 -72.6150 78° East 524 603 35,000  Level FlightAware
09:07PM 46.4690 -72.4340 78° East 527 606 35,000  Level FlightAware
09:08PM 46.4900 -72.2790 79° East 526 605 35,000  Level FlightAware
09:09PM 46.5100 -72.1400 78° East 526 605 35,000  Level FlightAware
09:10PM 46.5310 -71.9850 79° East 525 604 35,000  Level FlightAware
09:10PM 46.5470 -71.8650 79° East 524 603 35,000  Level FlightAware
09:11PM 46.5640 -71.7370 79° East 522 601 35,000  Level FlightAware
09:12PM 46.5850 -71.5830 79° East 523 602 35,000  Level FlightAware
09:12PM 46.6060 -71.4210 79° East 524 603 35,000  Level FlightAware
09:13PM 46.6250 -71.2750 79° East 525 604 35,000  Level FlightAware
09:14PM 46.6420 -71.1450 79° East 526 605 35,000  Level FlightAware
09:14PM 46.6630 -70.9790 79° East 527 606 35,000  Level FlightAware
09:15PM 46.6810 -70.8350 80° East 529 609 35,000  Level FlightAware
09:16PM 46.7000 -70.6840 80° East 529 609 35,000  Level FlightAware
09:16PM 46.7170 -70.5440 80° East 530 610 35,000  Level FlightAware
09:17PM 46.7340 -70.4040 80° East 530 610 35,000  Level FlightAware
09:18PM 46.7530 -70.2450 80° East 532 612 35,000  Level FlightAware
09:19PM 46.7720 -70.0920 80° East 533 613 35,000  Level FlightAware
09:19PM 46.7860 -69.9720 80° East 534 615 35,000  Level FlightAware
09:20PM 46.8050 -69.8070 80° East 535 616 35,000  Level FlightAware
09:21PM 46.8220 -69.6610 80° East 535 616 35,000  Level FlightAware
09:21PM 46.8420 -69.4880 80° East 537 618 35,000  Level FlightAware
09:22PM 46.8560 -69.3570 81° East 538 619 35,000  Level FlightAware
09:23PM 46.8710 -69.2230 81° East 538 619 35,000  Level FlightAware
09:24PM 46.8910 -69.0460 81° East 539 620 35,000  Level FlightAware
09:24PM 46.9040 -68.9200 81° East 539 620 35,000  Level FlightAware
09:25PM 46.9190 -68.7800 81° East 540 621 35,000  Level FlightAware
09:26PM 46.9390 -68.5910 81° East 539 620 35,000  Level FlightAware
09:26PM 46.9540 -68.4560 81° East 539 620 35,000  Level FlightAware
09:27PM 46.9650 -68.3520 81° East 539 620 35,000  Level FlightAware
09:28PM 46.9830 -68.1640 82° East 534 615 35,000  Level FlightAware
09:28PM 47.0020 -67.9790 81° East 533 613 35,000  Level FlightAware
09:29PM 47.0190 -67.8050 82° East 533 613 35,000  Level FlightAware
09:30PM 47.0390 -67.5950 82° East 529 609 35,000  Level FlightAware
09:31PM 47.0540 -67.4350 82° East 526 605 35,000  Level FlightAware
09:32PM 47.0670 -67.2980 82° East 526 605 35,000  Level FlightAware
09:33PM 47.0840 -67.1110 82° East 525 604 35,000  Level FlightAware
09:33PM 47.0950 -67.0000 82° East 525 604 35,000  Level FlightAware
09:34PM 47.1090 -66.8560 82° East 525 604 35,000  Level FlightAware
09:35PM 47.1200 -66.7420 82° East 525 604 35,000  Level FlightAware
09:35PM 47.1330 -66.6000 82° East 525 604 35,000  Level FlightAware
09:36PM 47.1440 -66.4920 81° East 525 604 35,000  Level FlightAware
09:37PM 47.1570 -66.3480 82° East 525 604 35,000  Level FlightAware
09:37PM 47.1680 -66.2400 81° East 525 604 35,000  Level FlightAware
09:39PM 47.1850 -66.0530 82° East 525 604 35,000  Level FlightAware
09:39PM 47.1960 -65.9420 82° East 525 604 35,000  Level FlightAware
09:40PM 47.2070 -65.8310 82° East 525 604 35,000  Level FlightAware
09:41PM 47.2200 -65.6860 82° East 525 604 35,000  Level FlightAware
09:41PM 47.2310 -65.5780 81° East 525 604 35,000  Level FlightAware
09:42PM 47.2450 -65.4300 82° East 525 604 35,000  Level FlightAware
09:43PM 47.2500 -64.9667 82° East 530 610 35,000  Level Gander Center
09:44PM 47.2500 -64.7833 90° East 520 598 35,000  Level Gander Center
09:45PM 47.2667 -64.5500 84° East 520 598 35,000  Level Gander Center
09:46PM 47.2833 -64.3333 83° East 520 598 35,000  Level Gander Center
09:47PM 47.3000 -64.1167 83° East 520 598 35,000  Level Gander Center
09:48PM 47.3167 -63.9167 83° East 520 598 35,000  Level Gander Center
09:49PM 47.3167 -63.7000 90° East 520 598 35,000  Level Gander Center
09:50PM 47.3333 -63.5000 83° East 520 598 35,000  Level Gander Center
09:51PM 47.3500 -63.2833 83° East 520 598 35,000  Level Gander Center
09:52PM 47.3667 -63.0500 84° East 520 598 35,000  Level Gander Center
09:53PM 47.3667 -62.8667 90° East 520 598 35,000  Level Gander Center
09:58PM 47.4440 -61.7560 90° East 525 604 35,000  Level FlightAware
09:58PM 47.4500 -61.6340 86° East 525 604 35,000  Level FlightAware
09:59PM 47.4570 -61.4880 86° East 525 604 35,000  Level FlightAware
10:00PM 47.4660 -61.2540 87° East 524 603 35,000  Level FlightAware
10:01PM 47.4710 -61.1030 87° East 525 604 35,000  Level FlightAware
10:02PM 47.4770 -60.9590 86° East 525 604 35,000  Level FlightAware
10:02PM 47.4820 -60.8490 86° East 525 604 35,000  Level FlightAware
10:03PM 47.4910 -60.6570 86° East 525 604 35,000  Level FlightAware
10:04PM 47.4960 -60.5540 86° East 525 604 35,000  Level FlightAware
10:05PM 47.4980 -60.3080 89° East 524 603 35,000  Level FlightAware
10:05PM 47.5030 -60.1640 87° East 525 604 35,000  Level FlightAware
10:06PM 47.5080 -60.0150 87° East 525 604 35,000  Level FlightAware
10:07PM 47.5120 -59.9050 87° East 525 604 35,000  Level FlightAware
10:07PM 47.5160 -59.6900 88° East 528 608 35,000  Level FlightAware
10:08PM 47.5190 -59.5820 88° East 528 608 35,000  Level FlightAware
10:09PM 47.5250 -59.3980 87° East 528 608 35,000  Level FlightAware
10:10PM 47.5270 -59.1830 89° East 526 605 35,000  Level FlightAware
10:10PM 47.5300 -59.0390 88° East 526 605 35,000  Level FlightAware
10:11PM 47.5330 -58.9300 88° East 527 606 35,000  Level FlightAware
10:12PM 47.5370 -58.7160 88° East 527 606 35,000  Level FlightAware
10:13PM 47.5390 -58.5600 89° East 527 606 35,000  Level FlightAware
10:13PM 47.5410 -58.4050 89° East 528 608 35,000  Level FlightAware
10:14PM 47.5440 -58.2140 89° East 529 609 35,000  Level FlightAware
10:15PM 47.5460 -58.0350 89° East 529 609 35,000  Level FlightAware
10:16PM 47.5470 -57.8890 89° East 529 609 35,000  Level FlightAware
10:17PM 47.5540 -57.7260 86° East 526 605 35,000  Level FlightAware
10:17PM 47.5640 -57.5980 83° East 525 604 35,000  Level FlightAware
10:18PM 47.5820 -57.3870 83° East 525 604 35,000  Level FlightAware
10:19PM 47.5940 -57.2470 83° East 524 603 35,000  Level FlightAware
10:19PM 47.6060 -57.1080 83° East 524 603 35,000  Level FlightAware
10:20PM 47.6210 -56.9450 82° East 522 601 35,000  Level FlightAware
10:21PM 47.6340 -56.7860 83° East 523 602 35,000  Level FlightAware
10:22PM 47.6460 -56.6460 83° East 521 600 35,000  Level FlightAware
10:22PM 47.6580 -56.5050 83° East 520 598 35,000  Level FlightAware
10:23PM 47.6710 -56.3430 83° East 520 598 35,000  Level FlightAware
10:24PM 47.6830 -56.1860 83° East 519 597 35,000  Level FlightAware
10:24PM 47.6950 -56.0410 83° East 519 597 35,000  Level FlightAware
10:25PM 47.7050 -55.9020 84° East 519 597 35,000  Level FlightAware
10:26PM 47.7170 -55.7420 84° East 521 600 35,000  Level FlightAware
10:27PM 47.7280 -55.6020 83° East 520 598 35,000  Level FlightAware
10:27PM 47.7400 -55.4390 84° East 520 598 35,000  Level FlightAware
10:28PM 47.7500 -55.2980 84° East 520 598 35,000  Level FlightAware
10:29PM 47.7600 -55.1550 84° East 522 601 35,000  Level FlightAware
10:29PM 47.7710 -54.9950 84° East 523 602 35,000  Level FlightAware
10:30PM 47.7800 -54.8520 85° East 522 601 35,000  Level FlightAware
10:31PM 47.7900 -54.7100 84° East 522 601 35,000  Level FlightAware
10:31PM 47.8000 -54.5500 85° East 523 602 35,000  Level FlightAware
10:32PM 47.8110 -54.3890 84° East 523 602 35,000  Level FlightAware
10:33PM 47.8200 -54.2460 85° East 523 602 35,000  Level FlightAware
10:34PM 47.8280 -54.1030 85° East 522 601 35,000  Level FlightAware
10:34PM 47.8380 -53.9430 85° East 523 602 35,000  Level FlightAware
10:35PM 47.8460 -53.8030 85° East 521 600 35,000  Level FlightAware
10:35PM 47.8520 -53.7000 85° East 521 600 35,000  Level FlightAware
10:36PM 47.8610 -53.5290 85° East 520 598 35,000  Level FlightAware
10:37PM 47.8700 -53.3800 85° East 520 598 35,000  Level FlightAware
10:38PM 47.8780 -53.2300 85° East 520 598 35,000 60 Level FlightAware
10:38PM 47.8850 -53.0800 86° East 521 600 35,100 480 Climbing FlightAware
10:39PM 47.8920 -52.9420 86° East 521 600 35,700 720 Climbing FlightAware
10:40PM 47.9010 -52.7660 86° East 522 601 36,200 660 Climbing FlightAware
10:40PM 47.9070 -52.6300 86° East 523 602 36,700 540 Climbing FlightAware
10:41PM 47.9150 -52.4650 86° East 521 600 37,000 180 Climbing FlightAware
10:42PM 47.9220 -52.3150 86° East 520 598 37,000  Level FlightAware
10:42PM 47.9280 -52.1790 86° East 519 597 37,000  Level FlightAware
10:43PM 47.9340 -52.0230 87° East 518 596 37,000  Level FlightAware
10:44PM 47.9400 -51.8840 86° East 516 594 37,000  Level FlightAware
10:45PM 47.9460 -51.7240 87° East 516 594 37,000  Level FlightAware
10:45PM 47.9520 -51.5830 86° East 515 593 37,000  Level FlightAware
10:46PM 47.9570 -51.4620 86° East 515 593 37,000  Level FlightAware
10:47PM 47.9630 -51.3230 86° East 515 593 37,000  Level FlightAware
10:47PM 47.9690 -51.2110 85° East 515 593 37,000  Level FlightAware
10:48PM 47.9750 -51.0630 86° East 515 593 37,000  Level FlightAware
10:49PM 47.9800 -50.9610 86° East 515 593 37,000  Level FlightAware
10:50PM 47.9870 -50.8160 86° East 515 593 37,000  Level FlightAware
10:50PM 47.9920 -50.7070 86° East 515 593 37,000  Level FlightAware
10:51PM 47.9990 -50.5620 86° East 515 593 37,000  Level FlightAware
10:52PM 48.0040 -50.4530 86° East 515 593 37,000  Level FlightAware
10:52PM 48.0110 -50.3030 86° East 515 593 37,000  Level FlightAware
10:53PM 48.0160 -50.1940 86° East 515 593 37,000  Level FlightAware
10:54PM 48.0250 -50.0100 86° East 515 593 37,000  Level FlightAware
10:55PM 48.0300 -49.9010 86° East 515 593 37,000  Level FlightAware
10:55PM 48.0370 -49.7500 86° East 515 593 37,000  Level FlightAware
10:57PM 48.2167 -49.2167 86° East 510 587 37,000  Level Gander Center
10:58PM 48.3000 -49.0167 58° Northeast 500 575 37,000  Level Gander Center
10:59PM 48.3667 -48.8500 59° Northeast 510 587 37,000  Level Gander Center
11:00PM 48.4167 -48.6500 69° East 510 587 37,000  Level Gander Center
11:01PM 48.4833 -48.4667 61° Northeast 510 587 37,000  Level Gander Center
11:02PM 48.5500 -48.2667 63° Northeast 510 587 37,000  Level Gander Center
11:03PM 48.6167 -48.0667 63° Northeast 510 587 37,000  Level Gander Center
11:04PM 48.6667 -47.9000 66° East 510 587 37,000  Level Gander Center
11:05PM 48.7333 -47.7000 63° Northeast 510 587 37,000  Level Gander Center
11:06PM 48.8333 -47.5167 50° Northeast 520 598 37,000  Level Gander Center
11:07PM 48.8667 -47.3333 74° East 520 598 37,000  Level Gander Center
11:08PM 48.9333 -47.1333 63° Northeast 510 587 37,000  Level Gander Center
11:09PM 49.0000 -46.9333 63° Northeast 510 587 37,000  Level Gander Center
11:11PM 49.1081 -46.6050 63° Northeast  Level FlightAware Approximate
11:18PM 49.5391 -45.2516 63° Northeast  Level FlightAware Approximate
11:19PM 49.5994 -45.0563 64° Northeast  Level FlightAware Approximate
11:20PM 49.6593 -44.8606 65° Northeast  Level FlightAware Approximate
11:21PM 49.7189 -44.6643 65° Northeast  Level FlightAware Approximate
11:22PM 49.7782 -44.4676 65° Northeast  Level FlightAware Approximate
11:23PM 49.8371 -44.2704 65° Northeast  Level FlightAware Approximate
11:24PM 49.8957 -44.0727 65° Northeast  Level FlightAware Approximate
11:25PM 49.9540 -43.8746 65° Northeast  Level FlightAware Approximate
11:26PM 50.0120 -43.6759 66° East  Level FlightAware Approximate
11:27PM 50.0695 -43.4768 66° East  Level FlightAware Approximate
11:28PM 50.1268 -43.2772 66° East  Level FlightAware Approximate
11:29PM 50.1837 -43.0771 66° East  Level FlightAware Approximate
11:30PM 50.2403 -42.8766 66° East  Level FlightAware Approximate
11:31PM 50.2965 -42.6755 66° East  Level FlightAware Approximate
11:32PM 50.3524 -42.4740 66° East  Level FlightAware Approximate
11:33PM 50.4079 -42.2721 67° East  Level FlightAware Approximate
11:34PM 50.4631 -42.0696 67° East  Level FlightAware Approximate
11:35PM 50.5179 -41.8667 67° East  Level FlightAware Approximate
11:36PM 50.5723 -41.6633 67° East  Level FlightAware Approximate
11:37PM 50.6264 -41.4595 67° East  Level FlightAware Approximate
11:38PM 50.6802 -41.2551 67° East  Level FlightAware Approximate
11:39PM 50.7336 -41.0504 68° East  Level FlightAware Approximate
11:40PM 50.7867 -40.8451 68° East  Level FlightAware Approximate
11:41PM 50.8393 -40.6394 68° East  Level FlightAware Approximate
11:42PM 50.8917 -40.4332 68° East  Level FlightAware Approximate
11:43PM 50.9436 -40.2265 68° East  Level FlightAware Approximate
11:44PM 50.9952 -40.0194 68° East  Level FlightAware Approximate
11:45PM 51.0470 -39.8135 68° East  Level FlightAware Approximate
11:46PM 51.0988 -39.6060 68° East  Level FlightAware Approximate
11:47PM 51.1502 -39.3982 68° East  Level FlightAware Approximate
11:48PM 51.2013 -39.1898 69° East  Level FlightAware Approximate
11:49PM 51.2519 -38.9809 69° East  Level FlightAware Approximate
11:50PM 51.3023 -38.7717 69° East  Level FlightAware Approximate
11:51PM 51.3522 -38.5619 69° East  Level FlightAware Approximate
11:52PM 51.4018 -38.3517 69° East  Level FlightAware Approximate
11:53PM 51.4510 -38.1411 69° East  Level FlightAware Approximate
11:54PM 51.4998 -37.9300 70° East  Level FlightAware Approximate
11:55PM 51.5482 -37.7184 70° East  Level FlightAware Approximate
11:56PM 51.5962 -37.5064 70° East  Level FlightAware Approximate
11:57PM 51.6439 -37.2939 70° East  Level FlightAware Approximate
11:58PM 51.6912 -37.0810 70° East  Level FlightAware Approximate
11:59PM 51.7381 -36.8677 70° East  Level FlightAware Approximate
12:00AM 51.7846 -36.6539 71° East  Level FlightAware Approximate
12:01AM 51.8307 -36.4397 71° East  Level FlightAware Approximate
12:02AM 51.8765 -36.2250 71° East  Level FlightAware Approximate
12:03AM 51.9218 -36.0099 71° East  Level FlightAware Approximate
12:04AM 51.9668 -35.7944 71° East  Level FlightAware Approximate
12:05AM 52.0113 -35.5784 71° East  Level FlightAware Approximate
12:06AM 52.0555 -35.3621 72° East  Level FlightAware Approximate
12:07AM 52.0992 -35.1452 72° East  Level FlightAware Approximate
12:08AM 52.1426 -34.9280 72° East  Level FlightAware Approximate
12:09AM 52.1855 -34.7103 72° East  Level FlightAware Approximate
12:10AM 52.2281 -34.4923 72° East  Level FlightAware Approximate
12:11AM 52.2703 -34.2738 72° East  Level FlightAware Approximate
12:12AM 52.3120 -34.0549 73° East  Level FlightAware Approximate
12:13AM 52.3534 -33.8355 73° East  Level FlightAware Approximate
12:14AM 52.3943 -33.6158 73° East  Level FlightAware Approximate
12:15AM 52.4348 -33.3957 73° East  Level FlightAware Approximate
12:16AM 52.4749 -33.1751 73° East  Level FlightAware Approximate
12:17AM 52.5147 -32.9542 73° East  Level FlightAware Approximate
12:18AM 52.5540 -32.7328 74° East  Level FlightAware Approximate
12:19AM 52.5928 -32.5111 74° East  Level FlightAware Approximate
12:20AM 52.6313 -32.2890 74° East  Level FlightAware Approximate
12:21AM 52.6694 -32.0665 74° East  Level FlightAware Approximate
12:22AM 52.7070 -31.8436 74° East  Level FlightAware Approximate
12:23AM 52.7442 -31.6203 75° East  Level FlightAware Approximate
12:24AM 52.7810 -31.3966 75° East  Level FlightAware Approximate
12:25AM 52.8174 -31.1726 75° East  Level FlightAware Approximate
12:26AM 52.8534 -30.9482 75° East  Level FlightAware Approximate
12:27AM 52.8889 -30.7234 75° East  Level FlightAware Approximate
12:28AM 52.9240 -30.4983 75° East  Level FlightAware Approximate
12:29AM 52.9587 -30.2728 76° East  Level FlightAware Approximate
12:30AM 52.9930 -30.0469 76° East  Level FlightAware Approximate
12:31AM 53.0076 -29.8157 86° East  Level FlightAware Approximate
12:32AM 53.0168 -29.5831 86° East  Level FlightAware Approximate
12:33AM 53.0255 -29.3504 86° East  Level FlightAware Approximate
12:34AM 53.0338 -29.1176 87° East  Level FlightAware Approximate
12:35AM 53.0416 -28.8847 87° East  Level FlightAware Approximate
12:36AM 53.0490 -28.6517 87° East  Level FlightAware Approximate
12:37AM 53.0559 -28.4186 87° East  Level FlightAware Approximate
12:38AM 53.0624 -28.1855 87° East  Level FlightAware Approximate
12:39AM 53.0684 -27.9523 87° East  Level FlightAware Approximate
12:40AM 53.0740 -27.7191 88° East  Level FlightAware Approximate
12:41AM 53.0790 -27.4858 88° East  Level FlightAware Approximate
12:42AM 53.0837 -27.2524 88° East  Level FlightAware Approximate
12:43AM 53.0879 -27.0190 88° East  Level FlightAware Approximate
12:44AM 53.0916 -26.7855 88° East  Level FlightAware Approximate
12:45AM 53.0948 -26.5520 89° East  Level FlightAware Approximate
12:46AM 53.0977 -26.3185 89° East  Level FlightAware Approximate
12:47AM 53.1000 -26.0849 89° East  Level FlightAware Approximate
12:48AM 53.1019 -25.8514 89° East  Level FlightAware Approximate
12:49AM 53.1033 -25.6178 89° East  Level FlightAware Approximate
12:50AM 53.1043 -25.3841 90° East  Level FlightAware Approximate
12:51AM 53.1048 -25.1505 90° East  Level FlightAware Approximate
12:52AM 53.1049 -24.9169 90° East  Level FlightAware Approximate
12:53AM 53.1045 -24.6833 90° East  Level FlightAware Approximate
12:54AM 53.1037 -24.4497 90° East  Level FlightAware Approximate
12:55AM 53.1024 -24.2161 90° East  Level FlightAware Approximate
12:56AM 53.1006 -23.9825 91° East  Level FlightAware Approximate
12:57AM 53.0984 -23.7489 91° East  Level FlightAware Approximate
12:58AM 53.0957 -23.5154 91° East  Level FlightAware Approximate
12:59AM 53.0926 -23.2819 91° East  Level FlightAware Approximate
01:00AM 53.0890 -23.0484 91° East  Level FlightAware Approximate
01:01AM 53.0849 -22.8150 92° East  Level FlightAware Approximate
01:02AM 53.0804 -22.5816 92° East  Level FlightAware Approximate
01:03AM 53.0755 -22.3483 92° East  Level FlightAware Approximate
01:04AM 53.0700 -22.1150 92° East  Level FlightAware Approximate
01:05AM 53.0642 -21.8818 92° East  Level FlightAware Approximate
01:06AM 53.0578 -21.6486 92° East  Level FlightAware Approximate
01:07AM 53.0511 -21.4161 93° East  Level FlightAware Approximate
01:08AM 53.0438 -21.1836 93° East  Level FlightAware Approximate
01:09AM 53.0362 -20.9512 93° East  Level FlightAware Approximate
01:10AM 53.0280 -20.7188 93° East  Level FlightAware Approximate
01:11AM 53.0195 -20.4866 93° East  Level FlightAware Approximate
01:12AM 53.0104 -20.2544 94° East  Level FlightAware Approximate
01:13AM 53.0009 -20.0224 94° East  Level FlightAware Approximate
01:14AM 52.9993 -19.7899 90° East  Level FlightAware Approximate
01:15AM 52.9981 -19.5574 90° East  Level FlightAware Approximate
01:16AM 52.9965 -19.3248 91° East  Level FlightAware Approximate
01:17AM 52.9944 -19.0923 91° East  Level FlightAware Approximate
01:18AM 52.9919 -18.8599 91° East  Level FlightAware Approximate
01:19AM 52.9889 -18.6274 91° East  Level FlightAware Approximate
01:20AM 52.9855 -18.3950 91° East  Level FlightAware Approximate
01:21AM 52.9816 -18.1626 92° East  Level FlightAware Approximate
01:22AM 52.9772 -17.9303 92° East  Level FlightAware Approximate
01:23AM 52.9724 -17.6980 92° East  Level FlightAware Approximate
01:24AM 52.9672 -17.4658 92° East  Level FlightAware Approximate
01:25AM 52.9615 -17.2336 92° East  Level FlightAware Approximate
01:26AM 52.9553 -17.0015 92° East  Level FlightAware Approximate
01:27AM 52.9487 -16.7695 93° East  Level FlightAware Approximate
01:28AM 52.9416 -16.5375 93° East  Level FlightAware Approximate
01:29AM 52.9341 -16.3056 93° East  Level FlightAware Approximate
01:30AM 52.9262 -16.0738 93° East  Level FlightAware Approximate
01:31AM 52.9177 -15.8421 93° East  Level FlightAware Approximate
01:32AM 52.9089 -15.6105 94° East  Level FlightAware Approximate
01:33AM 52.8996 -15.3790 94° East  Level FlightAware Approximate
01:34AM 52.8898 -15.1476 94° East  Level FlightAware Approximate
01:34AM 52.8410 -12.6320 94° East 530 610 37,000  Level FlightAware
01:34AM 52.8280 -12.4760 98° East 530 610 37,000  Level FlightAware
01:35AM 52.8799 -14.9162 94° East  Level FlightAware Approximate
01:35AM 52.8150 -12.3110 97° East 530 610 37,000  Level FlightAware
01:36AM 52.8000 -12.1300 98° East 530 610 37,000  Level FlightAware
01:37AM 52.7850 -11.9470 98° East 531 611 37,000  Level FlightAware
01:37AM 52.7720 -11.7880 98° East 532 612 37,000  Level FlightAware
01:38AM 52.7580 -11.6300 98° East 533 613 37,000  Level FlightAware
01:39AM 52.7420 -11.4450 98° East 533 613 37,000  Level FlightAware
01:39AM 52.7290 -11.2900 98° East 534 615 37,000  Level FlightAware
01:40AM 52.7140 -11.1260 99° East 535 616 37,000  Level FlightAware
01:41AM 52.6970 -10.9440 99° East 535 616 37,000  Level FlightAware
01:41AM 52.6810 -10.7660 98° East 533 613 37,000  Level FlightAware
01:42AM 52.6650 -10.6030 99° East 530 610 37,000  Level FlightAware
01:43AM 52.6500 -10.4450 99° East 529 609 37,000  Level FlightAware
01:43AM 52.6340 -10.2790 99° East 527 606 37,000  Level FlightAware
01:44AM 52.6160 -10.1030 99° East 527 606 37,000  Level FlightAware
01:45AM 52.6000 -9.9440 99° East 526 605 37,000  Level FlightAware
01:46AM 52.5840 -9.7860 99° East 526 605 37,000  Level FlightAware
01:46AM 52.5660 -9.6060 99° East 526 605 37,000  Level FlightAware
01:47AM 52.5490 -9.4470 100° East 526 605 37,000  Level FlightAware
01:48AM 52.5320 -9.2870 100° East 525 604 37,000  Level FlightAware
01:48AM 52.5130 -9.1130 100° East 525 604 37,000  Level FlightAware
01:49AM 52.4978 -8.9782 100° East 492 566 37,000  Level FlightAware UK
01:49AM 52.4960 -8.9570 100° East 525 604 37,000  Level FlightAware
01:50AM 52.4790 -8.8000 100° East 525 604 37,000 -120 Level FlightAware
01:50AM 52.4594 -8.6290 100° East 488 562 36,900  Descending FlightAware UK
01:50AM 52.4590 -8.6230 100° East 525 604 37,000 120 Climbing FlightAware
01:51AM 52.4410 -8.4680 101° East 527 606 37,000  Level FlightAware
01:52AM 52.4210 -8.2920 100° East 528 608 37,000  Level FlightAware
01:52AM 52.4052 -8.1582 100° East 490 564 37,000  Level FlightAware UK
01:53AM 52.4020 -8.1380 100° East 526 605 37,000  Level FlightAware
01:53AM 52.3820 -7.9790 102° East 526 605 37,000 -120 Level FlightAware
01:54AM 52.3606 -7.8063 102° East 490 564 36,900  Descending FlightAware UK
01:54AM 52.3590 -7.7940 102° East 529 609 37,000 120 Climbing FlightAware
01:55AM 52.3380 -7.6260 101° East 529 609 37,000  Level FlightAware
01:55AM 52.3170 -7.4630 102° East 528 608 37,000  Level FlightAware
01:56AM 52.3017 -7.3377 102° East 488 562 37,000  Level FlightAware UK
01:56AM 52.2970 -7.3070 102° East 528 608 37,000  Level FlightAware
01:57AM 52.2740 -7.1390 103° East 528 608 37,000 -120 Level FlightAware
01:57AM 52.2548 -6.9876 103° East 494 568 36,900  Descending FlightAware UK
01:58AM 52.2530 -6.9770 103° East 525 604 37,000 120 Climbing FlightAware
01:58AM 52.2340 -6.8230 101° East 525 604 37,000  Level FlightAware
01:59AM 52.2120 -6.6510 102° East 524 603 37,000  Level FlightAware
01:59AM 52.1965 -6.5243 102° East 494 568 37,000  Level FlightAware UK
02:00AM 52.1920 -6.4910 102° East 524 603 37,000 -180 Level FlightAware
02:00AM 52.1727 -6.3397 102° East 494 568 36,900  Descending FlightAware UK
02:00AM 52.1710 -6.3300 102° East 522 601 37,000 120 Climbing FlightAware
02:01AM 52.1510 -6.1720 102° East 521 600 37,000  Level FlightAware
02:02AM 52.1350 -6.0110 99° East 520 598 37,000  Level FlightAware
02:02AM 52.1200 -5.8400 98° East 519 597 37,000  Level FlightAware
02:03AM 52.1070 -5.6910 98° East 519 597 37,000  Level FlightAware
02:04AM 52.0930 -5.5130 97° East 518 596 37,000 -120 Level FlightAware
02:04AM 52.0806 -5.3671 97° East 490 564 36,900  Descending FlightAware UK
02:05AM 52.0790 -5.3480 97° East 518 596 37,000  Climbing FlightAware
02:05AM 52.0691 -5.2288 97° East 494 568 36,900  Descending FlightAware UK
02:05AM 52.0650 -5.1910 97° East 518 596 37,000 60 Climbing FlightAware
02:06AM 52.0520 -5.0380 98° East 517 595 37,000  Level FlightAware
02:07AM 52.0370 -4.8760 98° East 516 594 37,000  Level FlightAware
02:07AM 52.0361 -4.8612 98° East 488 562 37,000  Level FlightAware UK
02:07AM 52.0257 -4.7457 98° East 492 566 37,000  Level FlightAware UK
02:07AM 52.0220 -4.7080 98° East 516 594 37,000  Level FlightAware
02:08AM 52.0080 -4.5540 98° East 518 596 37,000  Level FlightAware
02:09AM 51.9910 -4.3770 99° East 519 597 37,000  Level FlightAware
02:09AM 51.9760 -4.2220 99° East 520 598 37,000  Level FlightAware
02:10AM 51.9587 -4.0450 99° East 521 600 37,000  Level FlightAware ADS-B
02:11AM 51.9440 -3.8980 99° East 522 601 37,000  Level FlightAware
02:11AM 51.9354 -3.8116 99° East 523 602 37,000  Level FlightAware ADS-B
02:12AM 51.9165 -3.6244 99° East 523 602 37,000  Level FlightAware ADS-B
02:13AM 51.9024 -3.4878 99° East 525 604 37,000  Level FlightAware ADS-B
02:13AM 51.8885 -3.3537 99° East 528 608 37,000  Level FlightAware ADS-B
02:14AM 51.8707 -3.1843 100° East 528 608 37,000  Level FlightAware ADS-B
02:14AM 51.8574 -3.0599 100° East 529 609 37,000  Level FlightAware ADS-B
02:15AM 51.8439 -2.9348 100° East 530 610 37,000  Level FlightAware ADS-B
02:15AM 51.8310 -2.8162 100° East 529 609 37,000  Level FlightAware ADS-B
02:16AM 51.8180 -2.6983 100° East 521 600 37,000  Level FlightAware ADS-B
02:17AM 51.8052 -2.5832 100° East 522 601 37,000  Level FlightAware ADS-B
02:17AM 51.7919 -2.4648 100° East 524 603 37,000  Level FlightAware ADS-B
02:18AM 51.7783 -2.3448 100° East 525 604 37,000  Level FlightAware ADS-B
02:18AM 51.7649 -2.2274 100° East 525 604 37,000  Level FlightAware ADS-B
02:19AM 51.7491 -2.0899 100° East 526 605 37,000  Level FlightAware ADS-B
02:19AM 51.7349 -1.9677 101° East 526 605 37,000  Level FlightAware ADS-B
02:20AM 51.7210 -1.8488 101° East 526 605 37,000  Level FlightAware ADS-B
02:20AM 51.7071 -1.7320 101° East 528 608 37,000  Level FlightAware ADS-B
02:21AM 51.6925 -1.6116 101° East 527 606 37,000  Level FlightAware ADS-B
02:21AM 51.6780 -1.4918 101° East 527 606 37,000  Level FlightAware ADS-B
02:22AM 51.6635 -1.3725 101° East 527 606 37,000  Level FlightAware ADS-B
02:22AM 51.6491 -1.2555 101° East 527 606 37,000  Level FlightAware ADS-B
02:23AM 51.6346 -1.1388 101° East 527 606 37,000  Level FlightAware ADS-B
02:23AM 51.6200 -1.0226 101° East 528 608 37,000  Level FlightAware ADS-B
02:24AM 51.6053 -0.9058 101° East 530 610 37,000  Level FlightAware ADS-B
02:24AM 51.5902 -0.7868 101° East 530 610 37,000  Level FlightAware ADS-B
02:25AM 51.5744 -0.6637 102° East 530 610 37,000  Level FlightAware ADS-B
02:25AM 51.5593 -0.5479 102° East 531 611 37,000  Level FlightAware ADS-B
02:26AM 51.5437 -0.4285 102° East 532 612 37,000  Level FlightAware ADS-B
02:26AM 51.5284 -0.3127 102° East 532 612 37,000  Level FlightAware ADS-B
02:27AM 51.5130 -0.1962 102° East 531 611 37,000  Level FlightAware ADS-B
02:27AM 51.4959 -0.0690 102° East 530 610 37,000 60 Level FlightAware ADS-B
02:28AM 51.4798 0.0500 102° East 528 608 37,100 240 Climbing FlightAware ADS-B
02:28AM 51.4637 0.1681 102° East 524 603 37,300 360 Climbing FlightAware ADS-B
02:29AM 51.4480 0.2822 102° East 519 597 37,500 360 Climbing FlightAware ADS-B
02:29AM 51.4323 0.3959 102° East 515 593 37,700 360 Climbing FlightAware ADS-B
02:30AM 51.4150 0.5205 103° East 512 589 37,900 240 Climbing FlightAware ADS-B
02:31AM 51.3985 0.6371 103° East 517 595 38,000 60 Climbing FlightAware ADS-B
02:31AM 51.3816 0.7564 103° East 522 601 38,000  Level FlightAware ADS-B
02:32AM 51.3647 0.8742 103° East 522 601 38,000  Level FlightAware ADS-B
02:32AM 51.3486 0.9863 103° East 521 600 38,000  Level FlightAware ADS-B
02:33AM 51.3319 1.1017 103° East 522 601 38,000  Level FlightAware ADS-B
02:33AM 51.3054 1.2818 103° East 523 602 38,000 -120 Level FlightAware ADS-B
02:34AM 51.2845 1.4146 103° East 498 573 37,900 -120 Descending FlightAware UK
02:35AM 51.2662 1.5260 105° East 496 571 37,900 120 Level FlightAware UK
02:35AM 51.2620 1.5540 105° East 522 601 38,000 120 Climbing FlightAware
02:35AM 51.2420 1.6740 105° East 521 600 38,000 -240 Level FlightAware
02:35AM 51.2408 1.6827 105° East 494 568 37,900 -180 Descending FlightAware UK
02:36AM 51.2191 1.8165 105° East 492 566 37,900 120 Level FlightAware UK
02:36AM 51.2180 1.8210 105° East 522 601 38,000  Climbing FlightAware
02:36AM 51.1973 1.9503 105° East 494 568 37,900  Descending FlightAware UK
02:37AM 51.1920 1.9830 105° East 522 601 38,000 60 Climbing FlightAware
02:37AM 51.1640 2.1490 105° East 522 601 38,000  Level FlightAware
02:38AM 51.1400 2.2970 104° East 521 600 38,000  Level FlightAware
02:39AM 51.1122 2.4624 104° East 500 575 38,000  Level FlightAware UK
02:39AM 51.1100 2.4710 104° East 519 597 38,000 -180 Level FlightAware
02:39AM 51.0857 2.6176 104° East 502 578 37,900  Descending FlightAware UK
02:39AM 51.0860 2.6170 104° East 519 597 38,000 60 Climbing FlightAware
02:40AM 51.0479 2.8379 104° East 498 573 38,000 -120 Level FlightAware UK
02:41AM 51.0290 2.9471 105° East 496 571 37,900  Descending FlightAware UK
02:42AM 51.0061 3.0778 106° East 494 568 38,000 120 Climbing FlightAware UK
02:42AM 51.0180 3.0110 106° East 513 590 38,000  Level FlightAware
02:42AM 50.9750 3.2540 106° East 516 594 38,000  Level FlightAware
02:43AM 50.9490 3.3970 106° East 517 595 38,000  Level FlightAware
02:44AM 50.9200 3.5620 106° East 517 595 38,000  Level FlightAware
02:44AM 50.8967 3.6888 106° East 494 568 38,000  Level FlightAware UK
02:44AM 50.8930 3.7090 106° East 518 596 38,000  Level FlightAware
02:45AM 50.8670 3.8550 106° East 517 595 38,000  Level FlightAware
02:46AM 50.8370 4.0140 107° East 516 594 38,000  Level FlightAware
02:47AM 50.8080 4.1730 106° East 517 595 38,000  Level FlightAware
02:47AM 50.7790 4.3250 107° East 516 594 38,000  Level FlightAware
02:48AM 50.7510 4.4760 106° East 516 594 38,000 -420 Level FlightAware
02:49AM 50.7277 4.6007 106° East 490 564 37,500 -900 Descending FlightAware UK
02:49AM 50.7230 4.6250 106° East 517 595 37,400 -600 Descending FlightAware
02:49AM 50.6950 4.7810 106° East 519 597 37,000 -300 Descending FlightAware
02:50AM 50.6660 4.9310 107° East 519 597 37,000  Level FlightAware
02:51AM 50.6340 5.0880 108° East 520 598 37,000  Level FlightAware
02:51AM 50.6050 5.2380 107° East 520 598 37,000  Level FlightAware
02:52AM 50.5780 5.3700 108° East 519 597 37,000 -840 Level FlightAware
02:53AM 50.5460 5.5350 107° East 503 579 35,900 -2,400 Descending FlightAware
02:54AM 50.5170 5.6760 108° East 513 590 33,600 -3,240 Descending FlightAware
02:54AM 50.4910 5.8070 107° East 530 610 31,800 -2,400 Descending FlightAware
02:55AM 50.4420 6.0420 108° East 527 606 29,600 -1,920 Descending FlightAware
02:56AM 50.4130 6.1850 108° East 492 566 28,500 -1,620 Descending FlightAware
02:57AM 50.3850 6.3210 108° East 457 526 27,400 -1,560 Descending FlightAware
02:57AM 50.3710 6.4550 99° East 463 533 26,400 -1,380 Descending FlightAware
02:58AM 50.3590 6.6060 97° East 449 517 25,400 -1,260 Descending FlightAware
02:59AM 50.3490 6.7340 97° East 445 512 24,600 -1,260 Descending FlightAware
02:59AM 50.3400 6.8690 96° East 434 499 23,700 -1,320 Descending FlightAware
03:00AM 50.3320 6.9690 97° East 428 493 23,000 -1,560 Descending FlightAware
03:01AM 50.3240 7.0910 96° East 421 484 21,800 -1,980 Descending FlightAware
03:01AM 50.3130 7.2280 97° East 412 474 20,100 -2,280 Descending FlightAware
03:02AM 50.3040 7.3440 97° East 406 467 18,600 -2,340 Descending FlightAware
03:03AM 50.2810 7.4670 106° East 393 452 16,800 -2,400 Descending FlightAware
03:03AM 50.2720 7.4850 128° Southeast 356 410 16,400 -3,180 Descending FlightAware
03:04AM 50.2200 7.5520 140° Southeast 346 398 14,100 -3,120 Descending FlightAware
03:04AM 50.1710 7.6120 142° Southeast 330 380 12,200 -2,220 Descending FlightAware
03:05AM 50.1120 7.6670 149° Southeast 329 379 11,000 -900 Descending FlightAware
03:06AM 50.0680 7.7420 132° Southeast 344 396 11,000  Level FlightAware
03:06AM 50.0560 7.8140 105° East 366 421 11,000  Level FlightAware
03:07AM 50.0740 7.9330 77° East 369 425 11,000  Level FlightAware
03:08AM 50.0910 8.0190 73° East 367 422 11,000  Level FlightAware
03:08AM 50.1140 8.1450 74° East 369 425 11,000 -120 Level FlightAware
03:09AM 50.1330 8.2490 74° East 350 403 10,900 -540 Descending FlightAware
03:10AM 50.1490 8.3400 75° East 326 375 10,300 -540 Descending FlightAware
03:11AM 50.1720 8.4700 75° East 325 374 10,000 -1,380 Descending FlightAware
03:11AM 50.1890 8.5610 74° East 320 368 8,100 -2,760 Descending FlightAware
03:12AM 50.1940 8.5910 75° East 314 361 7,800 -1,200 Descending FlightAware
03:12AM 50.2060 8.6570 74° East 309 356 7,200 -1,200 Descending FlightAware
03:13AM 50.2160 8.7130 74° East 306 352 6,700 -1,200 Descending FlightAware
03:13AM 50.2280 8.7800 74° East 305 351 6,100 -780 Descending FlightAware
03:14AM 50.2370 8.8350 76° East 305 351 6,000 -120 Descending FlightAware
03:14AM 50.2450 8.8760 73° East 283 326 6,000 -420 Level FlightAware
03:14AM 50.2540 8.9280 75° East 271 312 5,700 -1,080 Descending FlightAware
03:15AM 50.2640 8.9870 75° East 272 313 5,000 -1,140 Descending FlightAware
03:16AM 50.2490 9.0540 109° East 242 278 4,300 -1,140 Descending FlightAware
03:16AM 50.2350 9.0600 165° South 223 257 4,000 -420 Descending FlightAware
03:16AM 50.2070 9.0380 207° Southwest 208 239 4,000  Level FlightAware
03:17AM 50.1840 9.0110 217° Southwest 204 235 4,000  Level FlightAware
03:17AM 50.1610 8.9830 218° Southwest 203 234 4,000  Level FlightAware
03:18AM 50.1460 8.9540 231° Southwest 201 231 4,000  Level FlightAware
03:18AM 50.1370 8.9210 247° West 183 211 4,000  Level FlightAware
03:19AM 50.1300 8.8860 253° West 160 184 4,000  Level FlightAware
03:19AM 50.1240 8.8610 249° West 138 159 4,000  Level FlightAware
03:20AM 50.1170 8.8340 248° West 139 160 4,000  Level FlightAware
03:20AM 50.1140 8.8190 253° West 138 159 4,000 -120 Level FlightAware
03:21AM 50.1040 8.7760 250° West 146 168 3,900 -360 Descending FlightAware
03:21AM 50.0980 8.7530 248° West 143 165 3,600 -900 Descending FlightAware
03:21AM 50.0920 8.7280 249° West 140 161 3,200 -900 Descending FlightAware
03:22AM 50.0850 8.7000 249° West 147 169 2,800 -840 Descending FlightAware
03:22AM 50.0820 8.6850 253° West 150 173 2,600 -960 Descending FlightAware
03:23AM 50.0740 8.6540 248° West 152 175 2,100 -1,020 Descending FlightAware
03:23AM 50.0690 8.6290 253° West 139 160 1,700 -780 Descending FlightAware
03:24AM 50.0620 8.6010 249° West 137 158 1,400 -720 Descending FlightAware
03:24AM 50.0590 8.5880 250° West 132 152 1,200 -480 Descending FlightAware
03:24AM 50.0520 8.5600 249° West 132 152 1,000 -360 Descending FlightAware